sensor_id;sensor_type;location;lat;lon;timestamp;temperature;humidity
34099;DHT22;20374;49.474;10.944;2023-03-23T00:01:02;10.20;99.90
34099;DHT22;20374;49.474;10.944;2023-03-23T00:03:28;10.20;99.90
34099;DHT22;20374;49.474;10.944;2023-03-23T00:05:58;10.30;99.90
34099;DHT22;20374;49.474;10.944;2023-03-23T00:08:30;10.30;99.90
34099;DHT22;20374;49.474;10.944;2023-03-23T00:10:57;10.30;99.90
34099;DHT22;20374;49.474;10.944;2023-03-23T00:13:24;10.30;99.90
34099;DHT22;20374;49.474;10.944;2023-03-23T00:15:50;10.30;99.90
34099;DHT22;20374;49.474;10.944;2023-03-23T00:18:20;10.30;99.90
34099;DHT22;20374;49.474;10.944;2023-03-23T00:20:55;10.20;99.90
34099;DHT22;20374;49.474;10.944;2023-03-23T00:23:24;10.30;99.90
34099;DHT22;20374;49.474;10.944;2023-03-23T00:25:55;10.30;99.90
34099;DHT22;20374;49.474;10.944;2023-03-23T00:28:26;10.30;99.90
34099;DHT22;20374;49.474;10.944;2023-03-23T00:31:03;10.60;99.90
34099;DHT22;20374;49.474;10.944;2023-03-23T00:33:35;10.90;99.90
34099;DHT22;20374;49.474;10.944;2023-03-23T00:36:13;11.30;99.90
34099;DHT22;20374;49.474;10.944;2023-03-23T00:38:40;11.60;99.90
34099;DHT22;20374;49.474;10.944;2023-03-23T00:41:07;11.90;99.90
34099;DHT22;20374;49.474;10.944;2023-03-23T00:43:37;12.10;99.90
34099;DHT22;20374;49.474;10.944;2023-03-23T00:46:04;12.30;99.90
34099;DHT22;20374;49.474;10.944;2023-03-23T00:48:36;12.30;99.90
34099;DHT22;20374;49.474;10.944;2023-03-23T00:51:06;12.40;99.90
34099;DHT22;20374;49.474;10.944;2023-03-23T00:53:41;12.30;99.90
34099;DHT22;20374;49.474;10.944;2023-03-23T00:56:08;12.20;99.90
34099;DHT22;20374;49.474;10.944;2023-03-23T00:58:34;12.10;99.90
34099;DHT22;20374;49.474;10.944;2023-03-23T01:01:00;12.00;99.90
34099;DHT22;20374;49.474;10.944;2023-03-23T01:03:27;11.80;99.90
34099;DHT22;20374;49.474;10.944;2023-03-23T01:05:54;11.80;99.90
34099;DHT22;20374;49.474;10.944;2023-03-23T01:08:21;11.60;99.90
34099;DHT22;20374;49.474;10.944;2023-03-23T01:10:48;11.60;99.90
34099;DHT22;20374;49.474;10.944;2023-03-23T01:13:14;11.50;99.90
34099;DHT22;20374;49.474;10.944;2023-03-23T01:15:41;11.40;99.90
34099;DHT22;20374;49.474;10.944;2023-03-23T01:18:07;11.40;99.90
34099;DHT22;20374;49.474;10.944;2023-03-23T01:20:36;11.40;99.90
34099;DHT22;20374;49.474;10.944;2023-03-23T01:23:02;11.40;99.90
34099;DHT22;20374;49.474;10.944;2023-03-23T01:25:30;11.30;99.90
34099;DHT22;20374;49.474;10.944;2023-03-23T01:27:57;11.30;99.90
34099;DHT22;20374;49.474;10.944;2023-03-23T01:30:24;11.40;99.90
34099;DHT22;20374;49.474;10.944;2023-03-23T01:32:50;11.40;99.90
34099;DHT22;20374;49.474;10.944;2023-03-23T01:35:17;11.40;99.90
34099;DHT22;20374;49.474;10.944;2023-03-23T01:37:44;11.50;99.90
34099;DHT22;20374;49.474;10.944;2023-03-23T01:40:11;11.60;99.90
34099;DHT22;20374;49.474;10.944;2023-03-23T01:42:38;11.50;99.90
34099;DHT22;20374;49.474;10.944;2023-03-23T01:47:59;11.70;99.90
34099;DHT22;20374;49.474;10.944;2023-03-23T01:50:27;11.70;99.90
34099;DHT22;20374;49.474;10.944;2023-03-23T01:52:55;11.70;99.90
34099;DHT22;20374;49.474;10.944;2023-03-23T01:55:25;11.70;99.90
34099;DHT22;20374;49.474;10.944;2023-03-23T01:57:51;11.70;99.90
34099;DHT22;20374;49.474;10.944;2023-03-23T02:00:18;11.80;99.90
34099;DHT22;20374;49.474;10.944;2023-03-23T02:02:50;11.90;99.90
34099;DHT22;20374;49.474;10.944;2023-03-23T02:05:39;12.00;99.90
34099;DHT22;20374;49.474;10.944;2023-03-23T02:08:22;12.10;99.90
34099;DHT22;20374;49.474;10.944;2023-03-23T02:10:48;12.30;99.90
34099;DHT22;20374;49.474;10.944;2023-03-23T02:13:15;12.30;99.90
34099;DHT22;20374;49.474;10.944;2023-03-23T02:16:02;12.30;99.90
34099;DHT22;20374;49.474;10.944;2023-03-23T02:18:40;12.30;99.90
34099;DHT22;20374;49.474;10.944;2023-03-23T02:21:25;12.40;99.90
34099;DHT22;20374;49.474;10.944;2023-03-23T02:27:00;12.20;99.90
34099;DHT22;20374;49.474;10.944;2023-03-23T02:35:38;12.10;99.90
34099;DHT22;20374;49.474;10.944;2023-03-23T02:40:59;12.10;99.90
34099;DHT22;20374;49.474;10.944;2023-03-23T02:43:33;12.10;99.90
34099;DHT22;20374;49.474;10.944;2023-03-23T02:46:00;12.00;99.90
34099;DHT22;20374;49.474;10.944;2023-03-23T02:48:30;12.00;99.90
34099;DHT22;20374;49.474;10.944;2023-03-23T02:50:56;12.00;99.90
34099;DHT22;20374;49.474;10.944;2023-03-23T02:53:26;12.10;99.90
34099;DHT22;20374;49.474;10.944;2023-03-23T02:55:54;12.20;99.90
34099;DHT22;20374;49.474;10.944;2023-03-23T02:58:24;12.20;99.90
34099;DHT22;20374;49.474;10.944;2023-03-23T03:00:51;12.20;99.90
34099;DHT22;20374;49.474;10.944;2023-03-23T03:03:23;12.30;99.90
34099;DHT22;20374;49.474;10.944;2023-03-23T03:08:45;12.40;99.80
34099;DHT22;20374;49.474;10.944;2023-03-23T03:11:14;12.40;99.90
34099;DHT22;20374;49.474;10.944;2023-03-23T03:13:50;12.40;99.90
34099;DHT22;20374;49.474;10.944;2023-03-23T03:19:12;12.40;99.80
34099;DHT22;20374;49.474;10.944;2023-03-23T03:21:43;12.50;99.50
34099;DHT22;20374;49.474;10.944;2023-03-23T03:24:12;12.50;99.40
34099;DHT22;20374;49.474;10.944;2023-03-23T03:26:42;12.60;99.30
34099;DHT22;20374;49.474;10.944;2023-03-23T03:29:35;12.60;99.20
34099;DHT22;20374;49.474;10.944;2023-03-23T03:32:06;12.60;99.00
34099;DHT22;20374;49.474;10.944;2023-03-23T03:34:33;12.60;99.30
34099;DHT22;20374;49.474;10.944;2023-03-23T03:37:01;12.50;99.30
34099;DHT22;20374;49.474;10.944;2023-03-23T03:39:35;12.40;99.00
34099;DHT22;20374;49.474;10.944;2023-03-23T03:42:04;12.40;99.10
34099;DHT22;20374;49.474;10.944;2023-03-23T03:44:31;12.30;99.20
34099;DHT22;20374;49.474;10.944;2023-03-23T03:46:57;12.20;99.20
34099;DHT22;20374;49.474;10.944;2023-03-23T03:49:23;12.20;99.30
34099;DHT22;20374;49.474;10.944;2023-03-23T03:51:50;12.30;99.10
34099;DHT22;20374;49.474;10.944;2023-03-23T03:54:21;12.30;99.10
34099;DHT22;20374;49.474;10.944;2023-03-23T03:56:47;12.20;99.10
34099;DHT22;20374;49.474;10.944;2023-03-23T03:59:33;12.20;99.10
34099;DHT22;20374;49.474;10.944;2023-03-23T04:02:29;12.20;99.00
34099;DHT22;20374;49.474;10.944;2023-03-23T04:04:55;12.20;99.20
34099;DHT22;20374;49.474;10.944;2023-03-23T04:07:21;12.20;99.20
34099;DHT22;20374;49.474;10.944;2023-03-23T04:09:48;12.30;99.00
34099;DHT22;20374;49.474;10.944;2023-03-23T04:12:18;12.20;99.30
34099;DHT22;20374;49.474;10.944;2023-03-23T04:14:56;12.30;99.20
34099;DHT22;20374;49.474;10.944;2023-03-23T04:17:26;12.20;99.40
34099;DHT22;20374;49.474;10.944;2023-03-23T04:19:53;12.20;99.40
34099;DHT22;20374;49.474;10.944;2023-03-23T04:22:24;12.20;99.10
34099;DHT22;20374;49.474;10.944;2023-03-23T04:25:00;12.30;98.80
34099;DHT22;20374;49.474;10.944;2023-03-23T04:27:28;12.40;98.50
34099;DHT22;20374;49.474;10.944;2023-03-23T04:29:57;12.40;98.80
34099;DHT22;20374;49.474;10.944;2023-03-23T04:32:41;12.30;99.10
34099;DHT22;20374;49.474;10.944;2023-03-23T04:35:10;12.20;99.20
34099;DHT22;20374;49.474;10.944;2023-03-23T04:37:41;12.30;99.20
34099;DHT22;20374;49.474;10.944;2023-03-23T04:40:10;12.30;99.20
34099;DHT22;20374;49.474;10.944;2023-03-23T04:42:43;12.30;99.40
34099;DHT22;20374;49.474;10.944;2023-03-23T04:45:14;12.20;99.70
34099;DHT22;20374;49.474;10.944;2023-03-23T04:47:41;12.10;99.90
34099;DHT22;20374;49.474;10.944;2023-03-23T04:50:20;12.10;99.90
34099;DHT22;20374;49.474;10.944;2023-03-23T04:52:47;12.00;99.90
34099;DHT22;20374;49.474;10.944;2023-03-23T04:55:14;12.00;99.90
34099;DHT22;20374;49.474;10.944;2023-03-23T04:57:44;11.90;99.90
34099;DHT22;20374;49.474;10.944;2023-03-23T05:00:29;11.80;99.90
34099;DHT22;20374;49.474;10.944;2023-03-23T05:02:56;11.70;99.90
34099;DHT22;20374;49.474;10.944;2023-03-23T05:05:25;11.60;99.90
34099;DHT22;20374;49.474;10.944;2023-03-23T05:07:54;11.60;99.90
34099;DHT22;20374;49.474;10.944;2023-03-23T05:10:23;11.60;99.90
34099;DHT22;20374;49.474;10.944;2023-03-23T05:12:53;11.50;99.90
34099;DHT22;20374;49.474;10.944;2023-03-23T05:15:19;11.60;99.90
34099;DHT22;20374;49.474;10.944;2023-03-23T05:17:46;11.50;99.90
34099;DHT22;20374;49.474;10.944;2023-03-23T05:20:18;11.50;99.90
34099;DHT22;20374;49.474;10.944;2023-03-23T05:22:49;11.60;99.90
34099;DHT22;20374;49.474;10.944;2023-03-23T05:25:21;11.60;99.90
34099;DHT22;20374;49.474;10.944;2023-03-23T05:28:11;11.60;99.90
34099;DHT22;20374;49.474;10.944;2023-03-23T05:30:57;11.60;99.90
34099;DHT22;20374;49.474;10.944;2023-03-23T05:33:27;11.50;99.90
34099;DHT22;20374;49.474;10.944;2023-03-23T05:36:08;11.50;99.90
34099;DHT22;20374;49.474;10.944;2023-03-23T05:38:56;11.50;99.90
34099;DHT22;20374;49.474;10.944;2023-03-23T05:41:30;11.40;99.90
34099;DHT22;20374;49.474;10.944;2023-03-23T05:43:56;11.50;99.90
34099;DHT22;20374;49.474;10.944;2023-03-23T05:46:27;11.60;99.90
34099;DHT22;20374;49.474;10.944;2023-03-23T05:48:57;11.70;99.90
34099;DHT22;20374;49.474;10.944;2023-03-23T05:51:30;11.70;99.90
34099;DHT22;20374;49.474;10.944;2023-03-23T05:53:57;11.70;99.90
34099;DHT22;20374;49.474;10.944;2023-03-23T05:56:23;11.70;99.90
34099;DHT22;20374;49.474;10.944;2023-03-23T05:59:01;11.70;99.90
34099;DHT22;20374;49.474;10.944;2023-03-23T06:01:32;11.80;99.90
34099;DHT22;20374;49.474;10.944;2023-03-23T06:03:58;11.80;99.90
34099;DHT22;20374;49.474;10.944;2023-03-23T06:06:32;11.90;99.90
34099;DHT22;20374;49.474;10.944;2023-03-23T06:09:10;11.90;99.90
34099;DHT22;20374;49.474;10.944;2023-03-23T06:11:55;12.00;99.90
34099;DHT22;20374;49.474;10.944;2023-03-23T06:14:32;12.10;99.90
34099;DHT22;20374;49.474;10.944;2023-03-23T06:17:00;12.20;99.90
34099;DHT22;20374;49.474;10.944;2023-03-23T06:19:26;12.30;99.90
34099;DHT22;20374;49.474;10.944;2023-03-23T06:22:03;12.40;99.90
34099;DHT22;20374;49.474;10.944;2023-03-23T06:24:49;12.40;99.90
34099;DHT22;20374;49.474;10.944;2023-03-23T06:27:22;12.40;99.90
34099;DHT22;20374;49.474;10.944;2023-03-23T06:29:48;12.50;99.90
34099;DHT22;20374;49.474;10.944;2023-03-23T06:32:14;12.50;99.90
34099;DHT22;20374;49.474;10.944;2023-03-23T06:34:42;12.60;99.90
34099;DHT22;20374;49.474;10.944;2023-03-23T06:37:29;12.60;99.90
34099;DHT22;20374;49.474;10.944;2023-03-23T06:40:08;12.90;99.90
34099;DHT22;20374;49.474;10.944;2023-03-23T06:42:38;12.80;99.90
34099;DHT22;20374;49.474;10.944;2023-03-23T06:45:33;12.90;99.60
34099;DHT22;20374;49.474;10.944;2023-03-23T06:48:18;13.10;99.20
34099;DHT22;20374;49.474;10.944;2023-03-23T06:50:45;13.10;99.60
34099;DHT22;20374;49.474;10.944;2023-03-23T06:53:13;13.20;99.40
34099;DHT22;20374;49.474;10.944;2023-03-23T06:55:39;13.40;99.50
34099;DHT22;20374;49.474;10.944;2023-03-23T06:58:08;13.50;98.60
34099;DHT22;20374;49.474;10.944;2023-03-23T07:00:34;13.70;98.20
34099;DHT22;20374;49.474;10.944;2023-03-23T07:03:01;13.80;97.90
34099;DHT22;20374;49.474;10.944;2023-03-23T07:05:27;13.90;97.70
34099;DHT22;20374;49.474;10.944;2023-03-23T07:07:54;14.10;97.40
34099;DHT22;20374;49.474;10.944;2023-03-23T07:10:29;14.20;97.20
34099;DHT22;20374;49.474;10.944;2023-03-23T07:12:55;14.20;96.70
34099;DHT22;20374;49.474;10.944;2023-03-23T07:15:22;14.30;96.30
34099;DHT22;20374;49.474;10.944;2023-03-23T07:17:51;14.30;96.40
34099;DHT22;20374;49.474;10.944;2023-03-23T07:20:35;14.30;96.30
34099;DHT22;20374;49.474;10.944;2023-03-23T07:23:02;14.30;96.30
34099;DHT22;20374;49.474;10.944;2023-03-23T07:26:00;14.30;96.40
34099;DHT22;20374;49.474;10.944;2023-03-23T07:28:32;14.20;96.30
34099;DHT22;20374;49.474;10.944;2023-03-23T07:31:04;14.10;96.50
34099;DHT22;20374;49.474;10.944;2023-03-23T07:33:30;14.10;96.80
34099;DHT22;20374;49.474;10.944;2023-03-23T07:36:01;14.00;97.10
34099;DHT22;20374;49.474;10.944;2023-03-23T07:38:29;14.00;97.10
34099;DHT22;20374;49.474;10.944;2023-03-23T07:40:57;14.00;97.10
34099;DHT22;20374;49.474;10.944;2023-03-23T07:43:24;13.90;97.30
34099;DHT22;20374;49.474;10.944;2023-03-23T07:46:09;13.90;97.60
34099;DHT22;20374;49.474;10.944;2023-03-23T07:48:56;14.00;97.70
34099;DHT22;20374;49.474;10.944;2023-03-23T07:51:26;14.00;98.70
34099;DHT22;20374;49.474;10.944;2023-03-23T07:53:54;13.80;99.30
34099;DHT22;20374;49.474;10.944;2023-03-23T07:56:38;13.80;99.50
34099;DHT22;20374;49.474;10.944;2023-03-23T07:59:22;13.80;99.50
34099;DHT22;20374;49.474;10.944;2023-03-23T08:01:48;13.90;99.70
34099;DHT22;20374;49.474;10.944;2023-03-23T08:04:27;14.00;99.80
34099;DHT22;20374;49.474;10.944;2023-03-23T08:07:25;14.10;99.90
34099;DHT22;20374;49.474;10.944;2023-03-23T08:10:01;14.20;99.90
34099;DHT22;20374;49.474;10.944;2023-03-23T08:12:49;14.20;99.40
34099;DHT22;20374;49.474;10.944;2023-03-23T08:15:25;14.20;99.20
34099;DHT22;20374;49.474;10.944;2023-03-23T08:17:58;14.20;99.00
34099;DHT22;20374;49.474;10.944;2023-03-23T08:20:50;14.10;99.40
34099;DHT22;20374;49.474;10.944;2023-03-23T08:23:38;14.00;99.40
34099;DHT22;20374;49.474;10.944;2023-03-23T08:26:12;14.00;99.30
34099;DHT22;20374;49.474;10.944;2023-03-23T08:28:50;13.90;99.50
34099;DHT22;20374;49.474;10.944;2023-03-23T08:31:28;13.90;99.90
34099;DHT22;20374;49.474;10.944;2023-03-23T08:34:03;13.80;99.90
34099;DHT22;20374;49.474;10.944;2023-03-23T08:37:04;13.80;99.90
34099;DHT22;20374;49.474;10.944;2023-03-23T08:39:40;13.80;99.90
34099;DHT22;20374;49.474;10.944;2023-03-23T08:42:25;13.80;99.90
34099;DHT22;20374;49.474;10.944;2023-03-23T08:45:11;13.90;99.90
34099;DHT22;20374;49.474;10.944;2023-03-23T08:48:01;13.90;99.90
34099;DHT22;20374;49.474;10.944;2023-03-23T08:50:45;13.90;99.90
34099;DHT22;20374;49.474;10.944;2023-03-23T08:53:30;13.90;99.90
34099;DHT22;20374;49.474;10.944;2023-03-23T08:56:15;14.00;99.90
34099;DHT22;20374;49.474;10.944;2023-03-23T08:59:07;13.90;99.90
34099;DHT22;20374;49.474;10.944;2023-03-23T09:01:44;14.00;99.90
34099;DHT22;20374;49.474;10.944;2023-03-23T09:04:19;14.10;99.90
34099;DHT22;20374;49.474;10.944;2023-03-23T09:07:03;14.20;99.90
34099;DHT22;20374;49.474;10.944;2023-03-23T09:09:29;14.20;99.90
34099;DHT22;20374;49.474;10.944;2023-03-23T09:11:55;14.30;99.90
34099;DHT22;20374;49.474;10.944;2023-03-23T09:14:21;14.40;99.90
34099;DHT22;20374;49.474;10.944;2023-03-23T09:16:47;14.50;99.90
34099;DHT22;20374;49.474;10.944;2023-03-23T09:19:13;14.70;99.90
34099;DHT22;20374;49.474;10.944;2023-03-23T09:21:39;14.70;99.80
34099;DHT22;20374;49.474;10.944;2023-03-23T09:24:05;14.80;99.90
34099;DHT22;20374;49.474;10.944;2023-03-23T09:26:31;14.90;99.50
34099;DHT22;20374;49.474;10.944;2023-03-23T09:28:58;15.00;99.60
34099;DHT22;20374;49.474;10.944;2023-03-23T09:31:24;15.10;99.30
34099;DHT22;20374;49.474;10.944;2023-03-23T09:33:54;15.10;99.00
34099;DHT22;20374;49.474;10.944;2023-03-23T09:36:22;15.10;98.60
34099;DHT22;20374;49.474;10.944;2023-03-23T09:38:48;15.10;98.80
34099;DHT22;20374;49.474;10.944;2023-03-23T09:44:16;15.30;98.30
34099;DHT22;20374;49.474;10.944;2023-03-23T09:46:56;15.40;98.50
34099;DHT22;20374;49.474;10.944;2023-03-23T09:49:32;15.60;97.70
34099;DHT22;20374;49.474;10.944;2023-03-23T09:54:40;15.70;97.90
34099;DHT22;20374;49.474;10.944;2023-03-23T10:00:03;15.70;97.60
34099;DHT22;20374;49.474;10.944;2023-03-23T10:03:16;15.70;97.50
34099;DHT22;20374;49.474;10.944;2023-03-23T10:05:48;15.70;97.40
34099;DHT22;20374;49.474;10.944;2023-03-23T10:08:18;15.60;98.20
34099;DHT22;20374;49.474;10.944;2023-03-23T10:21:55;14.80;99.90
34099;DHT22;20374;49.474;10.944;2023-03-23T10:24:33;14.70;99.90
34099;DHT22;20374;49.474;10.944;2023-03-23T10:29:37;14.50;99.90
34099;DHT22;20374;49.474;10.944;2023-03-23T10:32:20;14.50;99.90
34099;DHT22;20374;49.474;10.944;2023-03-23T10:34:57;14.50;99.90
34099;DHT22;20374;49.474;10.944;2023-03-23T10:37:37;14.50;99.90
34099;DHT22;20374;49.474;10.944;2023-03-23T10:40:06;14.60;99.90
34099;DHT22;20374;49.474;10.944;2023-03-23T10:42:37;14.60;99.90
34099;DHT22;20374;49.474;10.944;2023-03-23T10:45:21;14.70;99.90
34099;DHT22;20374;49.474;10.944;2023-03-23T10:47:55;14.70;99.90
34099;DHT22;20374;49.474;10.944;2023-03-23T10:50:26;14.70;99.90
34099;DHT22;20374;49.474;10.944;2023-03-23T10:52:54;14.80;99.90
34099;DHT22;20374;49.474;10.944;2023-03-23T10:55:24;14.80;99.90
34099;DHT22;20374;49.474;10.944;2023-03-23T10:58:08;14.90;99.90
34099;DHT22;20374;49.474;10.944;2023-03-23T11:00:44;14.80;99.90
34099;DHT22;20374;49.474;10.944;2023-03-23T11:05:56;14.70;99.90
34099;DHT22;20374;49.474;10.944;2023-03-23T11:08:27;14.70;99.90
34099;DHT22;20374;49.474;10.944;2023-03-23T11:10:59;14.70;99.90
34099;DHT22;20374;49.474;10.944;2023-03-23T11:13:32;14.70;99.90
34099;DHT22;20374;49.474;10.944;2023-03-23T11:15:59;14.70;99.90
34099;DHT22;20374;49.474;10.944;2023-03-23T11:18:41;14.70;99.90
34099;DHT22;20374;49.474;10.944;2023-03-23T11:21:12;14.60;99.90
34099;DHT22;20374;49.474;10.944;2023-03-23T11:23:43;14.60;99.90
34099;DHT22;20374;49.474;10.944;2023-03-23T11:26:24;14.60;99.90
34099;DHT22;20374;49.474;10.944;2023-03-23T11:31:48;14.60;99.90
34099;DHT22;20374;49.474;10.944;2023-03-23T11:34:31;14.60;99.90
34099;DHT22;20374;49.474;10.944;2023-03-23T11:42:25;14.50;99.90
34099;DHT22;20374;49.474;10.944;2023-03-23T11:47:55;14.70;99.90
34099;DHT22;20374;49.474;10.944;2023-03-23T11:50:43;14.80;99.90
34099;DHT22;20374;49.474;10.944;2023-03-23T11:56:33;14.70;99.90
34099;DHT22;20374;49.474;10.944;2023-03-23T11:59:00;14.80;99.90
34099;DHT22;20374;49.474;10.944;2023-03-23T12:07:46;15.00;99.90
34099;DHT22;20374;49.474;10.944;2023-03-23T12:10:26;15.20;99.90
34099;DHT22;20374;49.474;10.944;2023-03-23T12:25:14;15.50;99.90
34099;DHT22;20374;49.474;10.944;2023-03-23T12:27:23;15.50;99.90
34099;DHT22;20374;49.474;10.944;2023-03-23T12:35:58;16.00;99.90
34099;DHT22;20374;49.474;10.944;2023-03-23T12:49:06;15.80;99.90
34099;DHT22;20374;49.474;10.944;2023-03-23T12:51:52;15.80;99.90
34099;DHT22;20374;49.474;10.944;2023-03-23T12:57:17;15.90;99.90
34099;DHT22;20374;49.474;10.944;2023-03-23T13:00:13;16.00;99.90
34099;DHT22;20374;49.474;10.944;2023-03-23T13:02:53;16.00;99.90
34099;DHT22;20374;49.474;10.944;2023-03-23T13:07:55;16.20;99.90
34099;DHT22;20374;49.474;10.944;2023-03-23T13:10:33;16.20;99.90
34099;DHT22;20374;49.474;10.944;2023-03-23T13:13:01;16.20;99.90
34099;DHT22;20374;49.474;10.944;2023-03-23T13:26:06;16.40;99.90
34099;DHT22;20374;49.474;10.944;2023-03-23T13:28:59;16.30;99.90
34099;DHT22;20374;49.474;10.944;2023-03-23T13:31:36;16.40;99.90
34099;DHT22;20374;49.474;10.944;2023-03-23T13:36:57;16.40;99.90
34099;DHT22;20374;49.474;10.944;2023-03-23T13:47:28;16.50;99.90
34099;DHT22;20374;49.474;10.944;2023-03-23T13:50:02;16.50;99.70
34099;DHT22;20374;49.474;10.944;2023-03-23T13:55:18;16.50;99.50
34099;DHT22;20374;49.474;10.944;2023-03-23T13:58:25;16.50;99.80
34099;DHT22;20374;49.474;10.944;2023-03-23T14:01:14;16.40;99.70
34099;DHT22;20374;49.474;10.944;2023-03-23T14:03:43;16.40;99.80
34099;DHT22;20374;49.474;10.944;2023-03-23T14:06:19;16.60;99.80
34099;DHT22;20374;49.474;10.944;2023-03-23T14:11:56;16.80;99.20
34099;DHT22;20374;49.474;10.944;2023-03-23T14:14:32;16.80;99.10
34099;DHT22;20374;49.474;10.944;2023-03-23T14:17:12;16.40;99.60
34099;DHT22;20374;49.474;10.944;2023-03-23T14:19:41;16.40;99.60
34099;DHT22;20374;49.474;10.944;2023-03-23T14:22:38;16.40;99.90
34099;DHT22;20374;49.474;10.944;2023-03-23T14:25:16;16.50;99.80
34099;DHT22;20374;49.474;10.944;2023-03-23T14:27:42;16.40;99.90
34099;DHT22;20374;49.474;10.944;2023-03-23T14:30:15;16.20;99.90
34099;DHT22;20374;49.474;10.944;2023-03-23T14:32:42;16.20;99.90
34099;DHT22;20374;49.474;10.944;2023-03-23T14:37:52;16.20;99.90
34099;DHT22;20374;49.474;10.944;2023-03-23T14:40:19;16.20;99.90
34099;DHT22;20374;49.474;10.944;2023-03-23T14:42:45;16.20;99.90
34099;DHT22;20374;49.474;10.944;2023-03-23T14:45:17;16.10;99.90
34099;DHT22;20374;49.474;10.944;2023-03-23T14:48:00;16.00;99.90
34099;DHT22;20374;49.474;10.944;2023-03-23T14:50:28;16.00;99.90
34099;DHT22;20374;49.474;10.944;2023-03-23T14:53:25;15.90;99.90
34099;DHT22;20374;49.474;10.944;2023-03-23T14:55:54;15.80;99.90
34099;DHT22;20374;49.474;10.944;2023-03-23T14:58:23;15.80;99.90
34099;DHT22;20374;49.474;10.944;2023-03-23T15:00:55;15.80;99.90
34099;DHT22;20374;49.474;10.944;2023-03-23T15:03:22;15.80;99.90
34099;DHT22;20374;49.474;10.944;2023-03-23T15:05:56;15.90;99.90
34099;DHT22;20374;49.474;10.944;2023-03-23T15:08:29;15.80;99.90
34099;DHT22;20374;49.474;10.944;2023-03-23T15:11:10;15.80;99.90
34099;DHT22;20374;49.474;10.944;2023-03-23T15:13:37;15.70;99.90
34099;DHT22;20374;49.474;10.944;2023-03-23T15:16:13;15.60;99.90
34099;DHT22;20374;49.474;10.944;2023-03-23T15:18:53;15.50;99.90
34099;DHT22;20374;49.474;10.944;2023-03-23T15:21:34;15.50;99.90
34099;DHT22;20374;49.474;10.944;2023-03-23T15:24:01;15.40;99.90
34099;DHT22;20374;49.474;10.944;2023-03-23T15:29:15;15.20;99.90
34099;DHT22;20374;49.474;10.944;2023-03-23T15:31:49;15.20;99.90
34099;DHT22;20374;49.474;10.944;2023-03-23T15:34:28;15.20;99.90
34099;DHT22;20374;49.474;10.944;2023-03-23T15:37:04;15.20;99.90
34099;DHT22;20374;49.474;10.944;2023-03-23T15:39:31;15.30;99.90
34099;DHT22;20374;49.474;10.944;2023-03-23T15:41:59;15.30;99.90
34099;DHT22;20374;49.474;10.944;2023-03-23T15:44:31;15.30;99.90
34099;DHT22;20374;49.474;10.944;2023-03-23T15:47:17;15.40;99.90
34099;DHT22;20374;49.474;10.944;2023-03-23T15:49:45;15.40;99.90
34099;DHT22;20374;49.474;10.944;2023-03-23T15:52:12;15.40;99.90
34099;DHT22;20374;49.474;10.944;2023-03-23T15:54:46;15.40;99.90
34099;DHT22;20374;49.474;10.944;2023-03-23T15:57:12;15.50;99.90
34099;DHT22;20374;49.474;10.944;2023-03-23T15:59:38;15.50;99.90
34099;DHT22;20374;49.474;10.944;2023-03-23T16:02:04;15.60;99.90
34099;DHT22;20374;49.474;10.944;2023-03-23T16:04:30;15.70;99.90
34099;DHT22;20374;49.474;10.944;2023-03-23T16:06:57;15.60;99.90
34099;DHT22;20374;49.474;10.944;2023-03-23T16:09:25;15.50;99.90
34099;DHT22;20374;49.474;10.944;2023-03-23T16:11:51;15.50;99.90
34099;DHT22;20374;49.474;10.944;2023-03-23T16:14:17;15.40;99.90
34099;DHT22;20374;49.474;10.944;2023-03-23T16:16:47;15.60;99.90
34099;DHT22;20374;49.474;10.944;2023-03-23T16:19:15;15.60;99.90
34099;DHT22;20374;49.474;10.944;2023-03-23T16:21:41;15.50;99.90
34099;DHT22;20374;49.474;10.944;2023-03-23T16:24:08;15.50;99.90
34099;DHT22;20374;49.474;10.944;2023-03-23T16:26:35;15.40;99.90
34099;DHT22;20374;49.474;10.944;2023-03-23T16:29:02;15.40;99.90
34099;DHT22;20374;49.474;10.944;2023-03-23T16:31:34;15.40;99.90
34099;DHT22;20374;49.474;10.944;2023-03-23T16:33:59;15.40;99.90
34099;DHT22;20374;49.474;10.944;2023-03-23T16:36:25;15.30;99.90
34099;DHT22;20374;49.474;10.944;2023-03-23T16:38:51;15.20;99.90
34099;DHT22;20374;49.474;10.944;2023-03-23T16:41:17;15.20;99.90
34099;DHT22;20374;49.474;10.944;2023-03-23T16:43:43;15.10;99.90
34099;DHT22;20374;49.474;10.944;2023-03-23T16:46:10;15.00;99.90
34099;DHT22;20374;49.474;10.944;2023-03-23T16:48:37;15.00;99.90
34099;DHT22;20374;49.474;10.944;2023-03-23T16:51:03;15.00;99.90
34099;DHT22;20374;49.474;10.944;2023-03-23T16:53:29;15.00;99.90
34099;DHT22;20374;49.474;10.944;2023-03-23T16:55:54;15.00;99.90
34099;DHT22;20374;49.474;10.944;2023-03-23T16:58:22;15.00;99.90
34099;DHT22;20374;49.474;10.944;2023-03-23T17:00:49;15.00;99.90
34099;DHT22;20374;49.474;10.944;2023-03-23T17:03:17;15.00;99.90
34099;DHT22;20374;49.474;10.944;2023-03-23T17:05:43;15.00;99.90
34099;DHT22;20374;49.474;10.944;2023-03-23T17:08:10;15.00;99.90
34099;DHT22;20374;49.474;10.944;2023-03-23T17:10:38;14.90;99.90
34099;DHT22;20374;49.474;10.944;2023-03-23T17:13:04;14.90;99.90
34099;DHT22;20374;49.474;10.944;2023-03-23T17:15:30;14.80;99.90
34099;DHT22;20374;49.474;10.944;2023-03-23T17:17:56;14.80;99.90
34099;DHT22;20374;49.474;10.944;2023-03-23T17:20:22;14.80;99.90
34099;DHT22;20374;49.474;10.944;2023-03-23T17:22:48;14.90;99.90
34099;DHT22;20374;49.474;10.944;2023-03-23T17:25:14;14.80;99.90
34099;DHT22;20374;49.474;10.944;2023-03-23T17:27:40;14.80;99.90
34099;DHT22;20374;49.474;10.944;2023-03-23T17:30:08;14.70;99.90
34099;DHT22;20374;49.474;10.944;2023-03-23T17:32:34;14.60;99.90
34099;DHT22;20374;49.474;10.944;2023-03-23T17:35:01;14.50;99.90
34099;DHT22;20374;49.474;10.944;2023-03-23T17:37:29;14.50;99.90
34099;DHT22;20374;49.474;10.944;2023-03-23T17:39:55;14.50;99.90
34099;DHT22;20374;49.474;10.944;2023-03-23T17:42:21;14.40;99.90
34099;DHT22;20374;49.474;10.944;2023-03-23T17:44:47;14.30;99.90
34099;DHT22;20374;49.474;10.944;2023-03-23T17:47:13;14.40;99.90
34099;DHT22;20374;49.474;10.944;2023-03-23T17:49:39;14.30;99.90
34099;DHT22;20374;49.474;10.944;2023-03-23T17:52:04;14.30;99.90
34099;DHT22;20374;49.474;10.944;2023-03-23T17:54:30;14.20;99.90
34099;DHT22;20374;49.474;10.944;2023-03-23T17:56:57;14.20;99.90
34099;DHT22;20374;49.474;10.944;2023-03-23T17:59:25;14.20;99.90